Relevés horaires St-Hubert (Belgique)


Relevés horaires à St-Hubert - Lundi 30 Juill. 2018
Heure UTC1 Température [°C] Vent [km/h] Hum. [%] Pres.4 [hPa] Visi. [Km] Nébu. [octa] Préc.5 [mm] Cond.
2m. Res. Ros. Dir.2 Vit. Moy. Raf.3
23:00 18.2 18.2 14.4 NNO 0.0 0.0 0.0 78 1016.7(0.0/3h) 40 0/8 -- --
22:00 18.7 18.7 13.5 NNO 0.0 0.0 0.0 72 1016.7(0.5/3h) 45 0/8 -- --
21:00 20.1 20.1 13.6 NNO 0.0 0.0 0.0 66 1016.3(0.6/3h) 45 0/8 -- --
20:00 21.1 21.1 13.5 NNO 0.0 0.0 0.0 62 1016.1(0.8/3h) 45 0/8 -- --
19:00 24.1 24.1 13.1 NNO 0.0 0.0 0.0 50 1015(0.4/3h) 40 0/8 -- --
18:00 25.4 25.4 12.5 NNO 0.0 0.0 0.0 45 1014.5(-0.1/3h) 40 0/8 0/12h
--
17:00 26.3 26.3 12.3 NNO 0.0 0.0 0.0 42 1014.2(-0.3/3h) 40 0/8 -- --
16:00 26.3 26.3 11.5 NNO 0.0 0.0 0.0 40 1014.2(-0.5/3h) 40 0/8 -- --
15:00 26.0 26.0 12.6 NNO 0.0 0.0 0.0 43 1014.5(0.2/3h) 35 0/8 -- --
14:00 25.4 25.4 13.1 NNO 0.0 0.0 0.0 46 1014.7(-0.3/3h) 26 0/8 -- --
13:00 26.9 26.9 13.2 NNO 0.0 0.0 0.0 43 1014.6(-0.3/3h) 35 0/8 -- --
12:00 24.6 24.6 12.3 NNO 0.0 0.0 0.0 46 1015(-0.3/3h) 30 0/8 0/6h
--
11:00 24.0 24.0 12.5 NNO 0.0 0.0 0.0 49 1015.3(0.0/3h) 40 0/8 -- --
10:00 24.3 24.3 13.4 NNO 0.0 0.0 0.0 51 1015.4(0.5/3h) 30 0/8 -- --
09:00 22.6 22.6 12.8 NNO 0.0 0.0 0.0 54 1015.7(0.8/3h) 35 0/8 -- --
08:00 22.1 22.1 13.3 NNO 0.0 0.0 0.0 57 1015.7(0.9/3h) 35 0/8 -- --
07:00 20.7 20.7 13.2 NNO 0.0 0.0 0.0 62 1015.7(0.7/3h) 35 0/8 -- --
06:00 19.0 19.0 12.8 NNO 0.0 0.0 0.0 67 1015.7(0.3/3h) 35 0/8 0/12h
--
05:00 17.0 17.0 12.0 NNO 0.0 0.0 0.0 72 1015.9(0.4/3h) 40 0/8 -- --
04:00 16.8 16.8 11.9 NNO 0.0 0.0 0.0 73 1015.9(0.4/3h) 40 0/8 -- --
03:00 16.6 16.6 11.8 NNO 0.0 0.0 0.0 73 1015.9(0.6/3h) 45 0/8 -- --
02:00 17.2 17.2 11.8 NNO 0.0 0.0 0.0 71 1015.5(-0.1/3h) 45 0/8 -- --
01:00 17.9 17.9 12.0 NNO 0.0 0.0 0.0 68 1015.2(0.3/3h) 45 0/8 -- --
00:00 16.8 16.8 11.1 NNO 0.0 0.0 0.0 69 1015.2(0.4/3h) 45 0/8 0/6h
0/24h
--

1 Coordinated Universal Time. Actuellement il est 17:00 locale et 15:00 UTC.

2 Le vent souffle depuis la direction indiquée vers la direction oposée.

3 Les rafales max. sont disponible 40 min après l'heure du relevé.

4 Pour les stations d'altitude (plus de 600m) le géopotentiel du niveau le plus proche de la pression obligatoire est indiqué.

5 Les stations disposant d'un diffuseur peuvent indiquer "trace". Cela signifie que des précipitations ont touchés le sol mais que la quantité est inférieure à 0.1 mm.

Récapitulatif de la journée
Température [°C] Vent [km/h] Ensoleillement4 [h] Precipitations totale5 [mm] Pression [Hpa]
Min1 Max.2 Moy.3 Max. Min Max.
16.0 26.9 0 0.0 0 h 0 min 0 1014.2 1016.7

1 Température minimale relevée entre 18:00 UTC la veille et 18:00 UTC le jour donné.

2 Température maximale relevée entre 06:00 UTC le jour donné et 06:00 UTC le lendemain.

3 Vent moyen de la journée basé sur les relevés horaires.

4 Ensoleillement en heures relevé entre 06:00 UTC la veille et 06:00 UTC le jour donné.

5 Précipitations totales tombées entre 06:00 UTC la jour donné et 06:00 UTC le lendemain.

Graphiques horaires